createdAt,value
2022-08-17T00:01:51.994Z,20.30
2022-08-17T00:06:00.535Z,20.30
2022-08-17T00:10:03.374Z,20.20
2022-08-17T00:14:10.979Z,20.20
2022-08-17T00:19:00.972Z,20.20
2022-08-17T00:22:38.610Z,20.20
2022-08-17T00:26:45.402Z,20.10
2022-08-17T00:30:53.407Z,20.10
2022-08-17T00:34:56.585Z,20.10
2022-08-17T00:39:00.973Z,20.00
2022-08-17T00:43:13.467Z,20.00
2022-08-17T00:47:16.254Z,20.00
2022-08-17T00:51:24.154Z,19.90
2022-08-17T00:55:28.880Z,19.90
2022-08-17T00:59:36.143Z,19.90
2022-08-17T01:03:40.048Z,19.90
2022-08-17T01:07:44.323Z,19.90
2022-08-17T01:11:52.108Z,19.90
2022-08-17T01:16:00.720Z,19.80
2022-08-17T01:20:04.680Z,19.70
2022-08-17T01:24:09.234Z,19.70
2022-08-17T01:28:12.051Z,19.70
2022-08-17T01:32:34.966Z,19.60
2022-08-17T01:36:38.328Z,19.60
2022-08-17T01:40:49.324Z,19.60
2022-08-17T01:45:05.839Z,19.50
2022-08-17T01:49:11.363Z,19.50
2022-08-17T01:53:17.536Z,19.40
2022-08-17T01:57:21.654Z,19.40
2022-08-17T02:01:31.534Z,19.40
2022-08-17T02:05:35.178Z,19.40
2022-08-17T02:09:37.966Z,19.30
2022-08-17T02:13:48.532Z,19.30
2022-08-17T02:17:58.038Z,19.30
2022-08-17T02:22:00.814Z,19.20
2022-08-17T02:26:04.077Z,19.20
2022-08-17T02:31:00.117Z,19.20
2022-08-17T02:34:34.756Z,19.10
2022-08-17T02:38:38.391Z,19.10
2022-08-17T02:42:43.961Z,19.10
2022-08-17T02:46:48.053Z,19.00
2022-08-17T02:50:51.045Z,19.00
2022-08-17T02:54:53.814Z,18.90
2022-08-17T02:58:56.595Z,18.90
2022-08-17T03:03:01.969Z,18.80
2022-08-17T03:07:06.639Z,18.80
2022-08-17T03:11:10.363Z,18.80
2022-08-17T03:15:16.557Z,18.80
2022-08-17T03:19:20.693Z,18.80
2022-08-17T03:23:25.285Z,18.80
2022-08-17T03:27:28.384Z,18.80
2022-08-17T03:31:31.411Z,18.60
2022-08-17T03:35:37.578Z,18.60
2022-08-17T03:39:40.568Z,18.50
2022-08-17T03:43:43.451Z,18.50
2022-08-17T03:48:03.979Z,18.40
2022-08-17T03:52:25.650Z,18.40
2022-08-17T03:56:43.634Z,18.40
2022-08-17T04:00:46.554Z,18.40
2022-08-17T04:04:51.248Z,18.40
2022-08-17T04:08:55.548Z,18.30
2022-08-17T04:12:59.148Z,18.30
2022-08-17T04:17:01.986Z,18.30
2022-08-17T04:21:04.940Z,18.30
2022-08-17T04:25:18.098Z,18.30
2022-08-17T04:29:21.313Z,18.40
2022-08-17T04:33:26.217Z,18.40
2022-08-17T04:37:29.039Z,18.40
2022-08-17T04:41:51.135Z,18.40
2022-08-17T04:45:57.173Z,18.50
2022-08-17T04:50:02.373Z,18.50
2022-08-17T04:54:07.887Z,18.60
2022-08-17T04:58:14.661Z,18.70
2022-08-17T05:02:17.467Z,18.70
2022-08-17T05:06:20.459Z,18.70
2022-08-17T05:10:23.508Z,18.80
2022-08-17T05:14:33.433Z,19.00
2022-08-17T05:18:38.727Z,19.10
2022-08-17T05:22:51.147Z,19.20
2022-08-17T05:26:54.166Z,19.30
2022-08-17T05:31:02.166Z,19.40
2022-08-17T05:35:06.216Z,19.40
2022-08-17T05:39:08.985Z,19.40
2022-08-17T05:43:20.709Z,19.50
2022-08-17T05:47:27.068Z,19.60
2022-08-17T05:51:56.544Z,19.70
2022-08-17T05:56:22.682Z,19.90
2022-08-17T06:00:42.149Z,20.10
2022-08-17T06:05:02.101Z,20.20
2022-08-17T06:09:15.111Z,20.40
2022-08-17T06:13:27.831Z,20.60
2022-08-17T06:17:31.101Z,20.70
2022-08-17T06:21:39.053Z,20.80
2022-08-17T06:25:46.358Z,21.00
2022-08-17T06:29:54.415Z,21.20
2022-08-17T06:33:59.108Z,21.30
2022-08-17T06:38:21.813Z,21.60
2022-08-17T06:42:54.861Z,21.80
2022-08-17T06:47:10.443Z,22.10
2022-08-17T06:51:19.557Z,22.30
2022-08-17T06:55:32.184Z,22.40
2022-08-17T06:59:47.245Z,22.60
2022-08-17T07:04:11.896Z,22.70
2022-08-17T07:08:20.697Z,23.00
2022-08-17T07:12:31.407Z,23.20
2022-08-17T07:16:41.900Z,23.40
2022-08-17T07:20:51.415Z,23.70
2022-08-17T07:24:58.454Z,23.90
2022-08-17T07:29:03.255Z,24.00
2022-08-17T07:33:13.372Z,24.30
2022-08-17T07:37:20.487Z,24.60
2022-08-17T07:41:23.304Z,24.80
2022-08-17T07:45:45.246Z,25.00
2022-08-17T07:49:51.323Z,25.00
2022-08-17T07:54:09.144Z,25.10
2022-08-17T07:58:18.805Z,25.20
2022-08-17T08:02:31.723Z,25.50
2022-08-17T08:06:49.523Z,25.90
2022-08-17T08:11:02.263Z,26.10
2022-08-17T08:15:13.216Z,26.30
2022-08-17T08:19:20.979Z,26.50
2022-08-17T08:23:46.277Z,27.20
2022-08-17T08:28:01.428Z,27.70
2022-08-17T08:32:11.249Z,28.20
2022-08-17T08:37:14.200Z,28.40
2022-08-17T08:41:05.072Z,29.00
2022-08-17T08:45:16.361Z,29.30
2022-08-17T08:50:01.867Z,29.40
2022-08-17T08:54:06.922Z,29.50
2022-08-17T08:58:31.538Z,29.70
2022-08-17T09:03:02.566Z,29.90
2022-08-17T09:07:30.165Z,30.10
2022-08-17T09:12:02.893Z,30.60
2022-08-17T09:16:11.325Z,30.90
2022-08-17T09:20:28.082Z,30.90
2022-08-17T09:24:36.407Z,30.80
2022-08-17T09:28:45.710Z,30.70
2022-08-17T09:32:55.355Z,31.00
2022-08-17T09:37:04.733Z,31.20
2022-08-17T09:41:15.458Z,31.50
2022-08-17T09:45:32.884Z,31.80
2022-08-17T09:49:42.637Z,32.10
2022-08-17T09:53:45.526Z,32.10
2022-08-17T09:57:58.862Z,31.70
2022-08-17T10:02:40.842Z,31.20
2022-08-17T10:06:53.152Z,30.90
2022-08-17T10:11:07.723Z,30.60
2022-08-17T10:15:23.318Z,30.60
2022-08-17T10:19:36.623Z,30.50
2022-08-17T10:24:02.601Z,30.40
2022-08-17T10:28:14.250Z,30.40
2022-08-17T10:32:32.154Z,30.30
2022-08-17T10:36:48.002Z,30.00
2022-08-17T10:40:58.475Z,29.80
2022-08-17T10:45:07.751Z,29.80
2022-08-17T10:49:26.705Z,29.70
2022-08-17T10:53:56.716Z,29.80
2022-08-17T10:58:20.973Z,29.70
2022-08-17T11:02:28.107Z,29.50
2022-08-17T11:06:41.877Z,29.50
2022-08-17T11:11:07.452Z,29.50
2022-08-17T11:15:30.878Z,29.60
2022-08-17T11:20:08.652Z,29.80
2022-08-17T11:24:19.058Z,29.80
2022-08-17T11:28:25.386Z,29.80
2022-08-17T11:32:33.082Z,29.70
2022-08-17T11:37:03.421Z,29.50
2022-08-17T11:41:20.890Z,29.40
2022-08-17T11:45:39.678Z,29.30
2022-08-17T11:50:16.680Z,29.20
2022-08-17T11:54:42.564Z,29.20
2022-08-17T11:58:45.925Z,29.10
2022-08-17T12:03:28.638Z,29.00
2022-08-17T12:07:34.363Z,28.90
2022-08-17T12:12:04.669Z,28.90
2022-08-17T12:16:07.159Z,28.90
2022-08-17T12:20:14.907Z,28.80
2022-08-17T12:24:29.209Z,28.70
2022-08-17T12:28:36.079Z,28.60
2022-08-17T12:32:40.535Z,28.60
2022-08-17T12:36:44.823Z,28.50
2022-08-17T12:40:58.026Z,28.50
2022-08-17T12:45:01.486Z,28.40
2022-08-17T12:49:15.721Z,28.40
2022-08-17T12:53:22.988Z,28.60
2022-08-17T12:57:27.879Z,28.70
2022-08-17T13:01:34.944Z,28.60
2022-08-17T13:05:40.497Z,28.70
2022-08-17T13:09:52.151Z,28.60
2022-08-17T13:13:56.759Z,28.50
2022-08-17T13:18:04.881Z,28.40
2022-08-17T13:22:12.327Z,28.40
2022-08-17T13:26:17.465Z,28.30
2022-08-17T13:30:24.772Z,28.10
2022-08-17T13:34:49.580Z,27.90
2022-08-17T13:39:09.572Z,27.60
2022-08-17T13:43:33.709Z,27.40
2022-08-17T13:47:37.778Z,27.30
2022-08-17T13:51:44.853Z,27.30
2022-08-17T13:55:49.909Z,27.20
2022-08-17T14:00:17.144Z,27.30
2022-08-17T14:04:24.623Z,27.60
2022-08-17T14:08:30.712Z,27.70
2022-08-17T14:12:35.673Z,27.80
2022-08-17T14:16:41.517Z,27.80
2022-08-17T14:20:45.719Z,28.30
2022-08-17T14:24:48.487Z,29.10
2022-08-17T14:28:56.517Z,29.70
2022-08-17T14:33:02.041Z,30.30
2022-08-17T14:37:06.225Z,30.50
2022-08-17T14:41:09.371Z,30.30
2022-08-17T14:45:29.719Z,30.30
2022-08-17T14:49:36.245Z,30.20
2022-08-17T14:53:42.598Z,30.30
2022-08-17T14:57:46.122Z,30.70
2022-08-17T15:01:49.100Z,30.90
2022-08-17T15:05:51.959Z,31.00
2022-08-17T15:09:56.632Z,31.50
2022-08-17T15:14:00.085Z,31.80
2022-08-17T15:18:03.719Z,32.20
2022-08-17T15:22:06.860Z,32.30
2022-08-17T15:26:11.329Z,32.30
2022-08-17T15:30:15.161Z,32.70
2022-08-17T15:34:18.202Z,32.80
2022-08-17T15:38:21.991Z,33.20
2022-08-17T15:42:26.705Z,33.00
2022-08-17T15:46:29.752Z,32.60
2022-08-17T15:50:32.786Z,32.30
2022-08-17T15:54:36.075Z,32.10
2022-08-17T15:58:43.699Z,31.60
2022-08-17T16:03:16.042Z,31.10
2022-08-17T16:07:11.207Z,30.80
2022-08-17T16:11:15.508Z,30.50
2022-08-17T16:15:21.232Z,30.20
2022-08-17T16:19:24.149Z,30.00
2022-08-17T16:23:27.101Z,29.60
2022-08-17T16:27:30.045Z,29.50
2022-08-17T16:31:34.264Z,29.50
2022-08-17T16:35:37.105Z,29.80
2022-08-17T16:39:40.530Z,30.30
2022-08-17T16:43:45.659Z,30.70
2022-08-17T16:47:50.410Z,31.00
2022-08-17T16:51:53.334Z,31.30
2022-08-17T16:55:56.501Z,31.40
2022-08-17T16:59:59.305Z,31.10
2022-08-17T17:04:06.385Z,30.90
2022-08-17T17:08:13.473Z,30.70
2022-08-17T17:12:19.743Z,30.50
2022-08-17T17:16:46.202Z,30.20
2022-08-17T17:20:56.434Z,29.90
2022-08-17T17:25:07.765Z,29.60
2022-08-17T17:29:27.661Z,29.40
2022-08-17T17:33:36.535Z,29.10
2022-08-17T17:37:43.677Z,28.90
2022-08-17T17:41:52.222Z,28.70
2022-08-17T17:45:58.555Z,28.50
2022-08-17T17:50:32.983Z,28.40
2022-08-17T17:54:48.897Z,28.30
2022-08-17T17:58:56.077Z,28.10
2022-08-17T18:03:13.340Z,28.00
2022-08-17T18:07:24.320Z,27.80
2022-08-17T18:12:05.895Z,27.50
2022-08-17T18:16:15.172Z,27.40
2022-08-17T18:20:35.925Z,27.20
2022-08-17T18:24:48.796Z,27.10
2022-08-17T18:28:52.814Z,27.00
2022-08-17T18:33:23.121Z,26.90
2022-08-17T18:37:39.325Z,26.60
2022-08-17T18:41:44.055Z,26.30
2022-08-17T18:45:48.946Z,26.20
2022-08-17T18:49:57.469Z,26.00
2022-08-17T18:54:13.454Z,25.90
2022-08-17T18:58:20.672Z,25.70
2022-08-17T19:02:43.835Z,25.60
2022-08-17T19:07:21.810Z,25.50
2022-08-17T19:11:30.009Z,25.40
2022-08-17T19:15:36.413Z,25.30
2022-08-17T19:19:53.140Z,25.20
2022-08-17T19:24:05.917Z,25.10
2022-08-17T19:28:22.349Z,25.00
2022-08-17T19:32:28.793Z,24.90
2022-08-17T19:36:39.572Z,24.80
2022-08-17T19:40:58.595Z,24.70
2022-08-17T19:45:08.799Z,24.60
2022-08-17T19:49:22.327Z,24.50
2022-08-17T19:54:04.411Z,24.40
2022-08-17T19:58:17.903Z,24.30
2022-08-17T20:02:28.807Z,24.30
2022-08-17T20:06:35.634Z,24.20
2022-08-17T20:10:48.128Z,24.00
2022-08-17T20:15:05.173Z,23.80
2022-08-17T20:19:13.165Z,23.70
2022-08-17T20:23:30.527Z,23.60
2022-08-17T20:27:37.010Z,23.50
2022-08-17T20:31:44.626Z,23.40
2022-08-17T20:36:04.832Z,23.30
2022-08-17T20:40:25.854Z,23.30
2022-08-17T20:44:33.630Z,23.30
2022-08-17T20:48:42.792Z,23.20
2022-08-17T20:52:52.812Z,23.00
2022-08-17T20:56:58.510Z,22.90
2022-08-17T21:01:13.133Z,22.90
2022-08-17T21:05:38.321Z,22.80
2022-08-17T21:09:41.246Z,22.70
2022-08-17T21:14:06.627Z,22.70
2022-08-17T21:18:19.612Z,22.60
2022-08-17T21:22:38.358Z,22.60
2022-08-17T21:26:51.124Z,22.60
2022-08-17T21:30:58.358Z,22.80
2022-08-17T21:35:26.078Z,22.80
2022-08-17T21:39:40.446Z,22.80
2022-08-17T21:43:49.984Z,22.80
2022-08-17T21:48:08.884Z,22.90
2022-08-17T21:52:15.092Z,22.70
2022-08-17T21:56:28.285Z,22.60
2022-08-17T22:00:33.089Z,22.60
2022-08-17T22:04:38.147Z,22.60
2022-08-17T22:08:41.012Z,22.60
2022-08-17T22:13:03.315Z,22.50
2022-08-17T22:17:24.965Z,22.50
2022-08-17T22:21:28.355Z,22.40
2022-08-17T22:25:33.182Z,22.30
2022-08-17T22:29:56.916Z,22.20
2022-08-17T22:34:11.028Z,22.10
2022-08-17T22:38:31.479Z,22.00
2022-08-17T22:42:36.311Z,21.90
2022-08-17T22:46:48.573Z,21.80
2022-08-17T22:50:52.475Z,21.70
2022-08-17T22:55:21.672Z,21.60
2022-08-17T22:59:39.810Z,21.50
2022-08-17T23:03:56.180Z,21.50
2022-08-17T23:07:59.032Z,21.50
2022-08-17T23:12:01.851Z,21.40
2022-08-17T23:16:05.110Z,21.30
2022-08-17T23:20:12.080Z,21.30
2022-08-17T23:24:20.453Z,21.20
2022-08-17T23:28:23.306Z,21.10
2022-08-17T23:32:26.471Z,21.10
2022-08-17T23:36:31.502Z,21.00
2022-08-17T23:40:34.679Z,20.90
2022-08-17T23:44:38.811Z,21.00
2022-08-17T23:48:42.031Z,20.90
2022-08-17T23:52:47.505Z,20.80
2022-08-17T23:56:50.650Z,20.70
